ANA305 RJAA-MPTO
Flight info
| Callsign | ANA305 |
|---|---|
| Flight time | N/A |
| Altitude | 33000 |
| Route | GULBO Y808 NOLAX Y812 ADNAP OTR5 KALNA 44E60 DCT 47E70/N0495F350 DCT 48E80 DCT 49N70 DCT 49N60 DCT 47N50/N0481F370 DCT 44N40 DCT 41N30 DCT TRYSH/N0481F390 DCT ENI DCT AVE J6 LANDO J50 PDZ J93 PPE UT152 CDR/N0478F410 UT152 ASOKU UM419 ANSON DCT AROVI |
| Aircraft | B772/H-SDE2E3FGHIJ5LORVWXY/LB1D1 |
Departure
| Time | 2026-05-04 04:22 |
|---|---|
| Airport | Narita International Airport (RJAA) |
Arrival
| Time | N/A |
|---|---|
| Airport | Tocumen International Airport (MPTO) |
| Time | Latitude | Longitude | Altitude | Speed | Heading |
|---|---|---|---|---|---|
| 2026-05-04 03:57 | 35.76187 | 140.38368 | 148 ft | 0 kts | 60° |
| 2026-05-04 04:05 | 35.76187 | 140.38367 | 148 ft | 0 kts | 60° |
| 2026-05-04 04:12 | 35.76184 | 140.38362 | 148 ft | 2 kts | 59° |
| 2026-05-04 04:12 | 35.76175 | 140.38345 | 176 ft | 2 kts | 53° |
| 2026-05-04 04:12 | 35.76164 | 140.38329 | 159 ft | 2 kts | 46° |
| 2026-05-04 04:12 | 35.76152 | 140.38315 | 176 ft | 2 kts | 36° |
| 2026-05-04 04:13 | 35.76138 | 140.38304 | 148 ft | 2 kts | 22° |
| 2026-05-04 04:13 | 35.76123 | 140.38298 | 148 ft | 2 kts | 5° |
| 2026-05-04 04:13 | 35.76106 | 140.38299 | 148 ft | 2 kts | 348° |
| 2026-05-04 04:13 | 35.76090 | 140.38304 | 148 ft | 2 kts | 335° |
| 2026-05-04 04:14 | 35.76082 | 140.38309 | 148 ft | 1 kts | 330° |
| 2026-05-04 04:14 | 35.76082 | 140.38310 | 148 ft | 0 kts | 330° |
| 2026-05-04 04:16 | 35.76118 | 140.38287 | 148 ft | 9 kts | 335° |
| 2026-05-04 04:16 | 35.76169 | 140.38249 | 148 ft | 9 kts | 326° |
| 2026-05-04 04:17 | 35.76230 | 140.38203 | 148 ft | 12 kts | 325° |
| 2026-05-04 04:17 | 35.76246 | 140.38116 | 148 ft | 12 kts | 241° |
| 2026-05-04 04:17 | 35.76203 | 140.38032 | 148 ft | 12 kts | 238° |
| 2026-05-04 04:17 | 35.76236 | 140.37960 | 148 ft | 12 kts | 334° |
| 2026-05-04 04:18 | 35.76304 | 140.37907 | 148 ft | 12 kts | 329° |
| 2026-05-04 04:18 | 35.76425 | 140.37819 | 148 ft | 24 kts | 330° |
| 2026-05-04 04:18 | 35.76567 | 140.37717 | 148 ft | 24 kts | 329° |
| 2026-05-04 04:18 | 35.76709 | 140.37614 | 148 ft | 24 kts | 330° |
| 2026-05-04 04:19 | 35.76851 | 140.37512 | 148 ft | 24 kts | 329° |
| 2026-05-04 04:19 | 35.76994 | 140.37409 | 147 ft | 24 kts | 330° |
| 2026-05-04 04:19 | 35.77133 | 140.37307 | 147 ft | 24 kts | 329° |
| 2026-05-04 04:19 | 35.77275 | 140.37205 | 147 ft | 24 kts | 329° |
| 2026-05-04 04:20 | 35.77418 | 140.37103 | 147 ft | 24 kts | 330° |
| 2026-05-04 04:20 | 35.77484 | 140.36965 | 148 ft | 21 kts | 240° |
| 2026-05-04 04:20 | 35.77416 | 140.36864 | 148 ft | 14 kts | 190° |
| 2026-05-04 04:20 | 35.77327 | 140.36911 | 146 ft | 14 kts | 150° |
| 2026-05-04 04:21 | 35.77237 | 140.36976 | 146 ft | 21 kts | 149° |
| 2026-05-04 04:21 | 35.77018 | 140.37131 | 146 ft | 54 kts | 148° |
| 2026-05-04 04:21 | 35.76486 | 140.37519 | 149 ft | 123 kts | 150° |
| 2026-05-04 04:21 | 35.75556 | 140.38186 | 162 ft | 183 kts | 150° |
| 2026-05-04 04:22 | 35.74395 | 140.38997 | 638 ft | 191 kts | 158° |
| 2026-05-04 04:22 | 35.73322 | 140.39783 | 1678 ft | 178 kts | 160° |
| 2026-05-04 04:22 | 35.72190 | 140.40590 | 2002 ft | 198 kts | 159° |
| 2026-05-04 04:22 | 35.71437 | 140.41122 | 2115 ft | 207 kts | 159° |
| 2026-05-04 04:23 | 35.70116 | 140.42054 | 2210 ft | 230 kts | 159° |
| 2026-05-04 04:23 | 35.68680 | 140.43081 | 2465 ft | 247 kts | 158° |
| 2026-05-04 04:23 | 35.67163 | 140.44183 | 2947 ft | 257 kts | 158° |
| 2026-05-04 04:23 | 35.65643 | 140.45294 | 3458 ft | 264 kts | 158° |
| 2026-05-04 04:24 | 35.64046 | 140.46450 | 4082 ft | 267 kts | 158° |
| 2026-05-04 04:24 | 35.62436 | 140.47619 | 4697 ft | 271 kts | 158° |
| 2026-05-04 04:24 | 35.60801 | 140.48804 | 5303 ft | 274 kts | 158° |
| 2026-05-04 04:24 | 35.59151 | 140.50000 | 5931 ft | 277 kts | 158° |
| 2026-05-04 04:25 | 35.57479 | 140.51209 | 6523 ft | 280 kts | 159° |
| 2026-05-04 04:25 | 35.55792 | 140.52422 | 7087 ft | 282 kts | 159° |
| 2026-05-04 04:25 | 35.54089 | 140.53643 | 7668 ft | 284 kts | 159° |
| 2026-05-04 04:25 | 35.52368 | 140.54878 | 8257 ft | 286 kts | 159° |
| 2026-05-04 04:26 | 35.50640 | 140.56118 | 8862 ft | 288 kts | 160° |
| 2026-05-04 04:26 | 35.48929 | 140.57346 | 9447 ft | 290 kts | 160° |
| 2026-05-04 04:26 | 35.47175 | 140.58602 | 9947 ft | 292 kts | 160° |
| 2026-05-04 04:26 | 35.45398 | 140.59872 | 10363 ft | 300 kts | 160° |
| 2026-05-04 04:27 | 35.43541 | 140.61204 | 10478 ft | 318 kts | 156° |
| 2026-05-04 04:27 | 35.41863 | 140.63174 | 10550 ft | 351 kts | 134° |
| 2026-05-04 04:27 | 35.40452 | 140.65738 | 10683 ft | 372 kts | 131° |
| 2026-05-04 04:27 | 35.38997 | 140.68444 | 10824 ft | 391 kts | 131° |
| 2026-05-04 04:28 | 35.37487 | 140.71239 | 11173 ft | 403 kts | 131° |
| 2026-05-04 04:28 | 35.35910 | 140.74135 | 11675 ft | 411 kts | 131° |
| 2026-05-04 04:28 | 35.34297 | 140.77069 | 12258 ft | 417 kts | 132° |
| 2026-05-04 04:28 | 35.32664 | 140.80020 | 12908 ft | 420 kts | 132° |
| 2026-05-04 04:29 | 35.31008 | 140.82996 | 13541 ft | 424 kts | 133° |
| 2026-05-04 04:29 | 35.29334 | 140.85996 | 14098 ft | 428 kts | 133° |
| 2026-05-04 04:29 | 35.27647 | 140.89016 | 14664 ft | 431 kts | 132° |
| 2026-05-04 04:29 | 35.25950 | 140.92054 | 15242 ft | 434 kts | 132° |
| 2026-05-04 04:30 | 35.24262 | 140.95071 | 15795 ft | 437 kts | 132° |
| 2026-05-04 04:30 | 35.22530 | 140.98164 | 16332 ft | 440 kts | 131° |
| 2026-05-04 04:30 | 35.21115 | 141.01537 | 16649 ft | 459 kts | 113° |
| 2026-05-04 04:30 | 35.20626 | 141.05463 | 17071 ft | 478 kts | 92° |
| 2026-05-04 04:31 | 35.21007 | 141.09531 | 17463 ft | 482 kts | 84° |
| 2026-05-04 04:31 | 35.21495 | 141.13621 | 17822 ft | 489 kts | 84° |
| 2026-05-04 04:31 | 35.21973 | 141.17749 | 18316 ft | 490 kts | 85° |
| 2026-05-04 04:31 | 35.22433 | 141.21883 | 18812 ft | 491 kts | 85° |
| 2026-05-04 04:32 | 35.22880 | 141.26046 | 19243 ft | 494 kts | 85° |
| 2026-05-04 04:32 | 35.23311 | 141.30178 | 19628 ft | 498 kts | 85° |
| 2026-05-04 04:32 | 35.23742 | 141.34403 | 20031 ft | 501 kts | 85° |
| 2026-05-04 04:32 | 35.24172 | 141.38648 | 20440 ft | 504 kts | 85° |
| 2026-05-04 04:33 | 35.24601 | 141.42915 | 20884 ft | 506 kts | 85° |
| 2026-05-04 04:33 | 35.25031 | 141.47200 | 21272 ft | 509 kts | 85° |
| 2026-05-04 04:33 | 35.25464 | 141.51533 | 21640 ft | 513 kts | 85° |
| 2026-05-04 04:33 | 35.25897 | 141.55867 | 22038 ft | 515 kts | 85° |
| 2026-05-04 04:34 | 35.26333 | 141.60243 | 22424 ft | 518 kts | 86° |
| 2026-05-04 04:34 | 35.26770 | 141.64633 | 22808 ft | 521 kts | 86° |
| 2026-05-04 04:34 | 35.27207 | 141.69051 | 23200 ft | 524 kts | 86° |
| 2026-05-04 04:34 | 35.27644 | 141.73481 | 23531 ft | 526 kts | 85° |
| 2026-05-04 04:35 | 35.28077 | 141.77889 | 23860 ft | 529 kts | 85° |
| 2026-05-04 04:35 | 35.28521 | 141.82422 | 24189 ft | 531 kts | 85° |
| 2026-05-04 04:35 | 35.28955 | 141.86865 | 24491 ft | 533 kts | 85° |
| 2026-05-04 04:35 | 35.29394 | 141.91384 | 24815 ft | 535 kts | 85° |
| 2026-05-04 04:36 | 35.29832 | 141.95911 | 25125 ft | 537 kts | 85° |
| 2026-05-04 04:36 | 35.30271 | 142.00474 | 25419 ft | 539 kts | 85° |
| 2026-05-04 04:36 | 35.30710 | 142.05045 | 25695 ft | 542 kts | 85° |
| 2026-05-04 04:36 | 35.31149 | 142.09640 | 25975 ft | 544 kts | 85° |
| 2026-05-04 04:37 | 35.32460 | 142.23465 | 26758 ft | 550 kts | 85° |
| 2026-05-04 04:37 | 35.32898 | 142.28121 | 27016 ft | 552 kts | 85° |
| 2026-05-04 04:38 | 35.33336 | 142.32797 | 27273 ft | 553 kts | 85° |
| 2026-05-04 04:38 | 35.33773 | 142.37487 | 27505 ft | 555 kts | 85° |
| 2026-05-04 04:38 | 35.34211 | 142.42200 | 27739 ft | 557 kts | 85° |
| 2026-05-04 04:38 | 35.34648 | 142.46928 | 27976 ft | 558 kts | 85° |
| 2026-05-04 04:39 | 35.35083 | 142.51661 | 28183 ft | 560 kts | 85° |
| 2026-05-04 04:39 | 35.35518 | 142.56402 | 28387 ft | 561 kts | 85° |
| 2026-05-04 04:39 | 35.35953 | 142.61168 | 28592 ft | 563 kts | 85° |
| 2026-05-04 04:39 | 35.36386 | 142.65940 | 28814 ft | 564 kts | 85° |
| 2026-05-04 04:40 | 35.36813 | 142.70665 | 28990 ft | 565 kts | 85° |
| 2026-05-04 04:40 | 35.37245 | 142.75456 | 29188 ft | 566 kts | 85° |
| 2026-05-04 04:40 | 35.37676 | 142.80259 | 29445 ft | 565 kts | 85° |
| 2026-05-04 04:40 | 35.38103 | 142.85049 | 29738 ft | 564 kts | 85° |
| 2026-05-04 04:41 | 35.38528 | 142.89830 | 29976 ft | 563 kts | 85° |
| 2026-05-04 04:41 | 35.38950 | 142.94606 | 30195 ft | 562 kts | 85° |
| 2026-05-04 04:41 | 35.39369 | 142.99366 | 30399 ft | 562 kts | 85° |
| 2026-05-04 04:41 | 35.39786 | 143.04121 | 30592 ft | 562 kts | 85° |
| 2026-05-04 04:42 | 35.40616 | 143.13660 | 30687 ft | 562 kts | 85° |
| 2026-05-04 04:42 | 35.41022 | 143.18356 | 30877 ft | 561 kts | 85° |
| 2026-05-04 04:42 | 35.41432 | 143.23119 | 31143 ft | 559 kts | 85° |
| 2026-05-04 04:43 | 35.42002 | 143.27811 | 31314 ft | 557 kts | 76° |
| 2026-05-04 04:43 | 35.43244 | 143.32301 | 31449 ft | 557 kts | 64° |
| 2026-05-04 04:43 | 35.45075 | 143.36472 | 31596 ft | 554 kts | 54° |
| 2026-05-04 04:43 | 35.47405 | 143.40205 | 31732 ft | 546 kts | 42° |
| 2026-05-04 04:44 | 35.52767 | 143.46830 | 31914 ft | 548 kts | 41° |
| 2026-05-04 04:44 | 35.55464 | 143.50139 | 32092 ft | 547 kts | 41° |
| 2026-05-04 04:44 | 35.58131 | 143.53459 | 32322 ft | 546 kts | 41° |
| 2026-05-04 04:45 | 35.60777 | 143.56799 | 32531 ft | 545 kts | 41° |
| 2026-05-04 04:45 | 35.63409 | 143.60151 | 32616 ft | 546 kts | 42° |
| 2026-05-04 04:47 | 35.81823 | 143.83806 | 32700 ft | 555 kts | 44° |
| 2026-05-04 04:47 | 35.87214 | 143.90752 | 32680 ft | 562 kts | 44° |
| 2026-05-04 04:48 | 35.92603 | 143.97713 | 32691 ft | 566 kts | 44° |
| 2026-05-04 04:49 | 36.06238 | 144.15393 | 32685 ft | 569 kts | 45° |
| 2026-05-04 04:49 | 36.11695 | 144.22507 | 32684 ft | 569 kts | 45° |
| 2026-05-04 04:50 | 36.17138 | 144.29621 | 32681 ft | 568 kts | 45° |
| 2026-05-04 04:50 | 36.22541 | 144.36696 | 32685 ft | 568 kts | 45° |
| 2026-05-04 04:51 | 36.27963 | 144.43811 | 32680 ft | 567 kts | 45° |
| 2026-05-04 04:51 | 36.33381 | 144.50936 | 32681 ft | 566 kts | 45° |
| 2026-05-04 04:52 | 36.37867 | 144.56846 | 32683 ft | 566 kts | 45° |
| 2026-05-04 04:52 | 36.43267 | 144.63975 | 32677 ft | 566 kts | 45° |
| 2026-05-04 04:53 | 36.48656 | 144.71105 | 32681 ft | 565 kts | 45° |
| 2026-05-04 04:53 | 36.54033 | 144.78235 | 32679 ft | 565 kts | 45° |
| 2026-05-04 04:54 | 36.59381 | 144.85342 | 32676 ft | 565 kts | 45° |
| 2026-05-04 04:54 | 36.64752 | 144.92495 | 32673 ft | 565 kts | 45° |
| 2026-05-04 04:55 | 36.70118 | 144.99657 | 32677 ft | 565 kts | 45° |
| 2026-05-04 04:55 | 36.75488 | 145.06840 | 32671 ft | 566 kts | 45° |
| 2026-05-04 04:56 | 36.80849 | 145.14029 | 32673 ft | 566 kts | 45° |
| 2026-05-04 04:56 | 36.86187 | 145.21201 | 32667 ft | 567 kts | 45° |
| 2026-05-04 04:57 | 36.91588 | 145.28474 | 32666 ft | 567 kts | 45° |
| 2026-05-04 04:57 | 36.96917 | 145.35666 | 32664 ft | 567 kts | 45° |
| 2026-05-04 04:58 | 37.02284 | 145.42925 | 32657 ft | 568 kts | 45° |
| 2026-05-04 04:58 | 37.07640 | 145.50187 | 32658 ft | 568 kts | 45° |
| 2026-05-04 04:59 | 37.12996 | 145.57465 | 32658 ft | 568 kts | 45° |
| 2026-05-04 04:59 | 37.18333 | 145.64784 | 32657 ft | 569 kts | 48° |
| 2026-05-04 05:00 | 37.22965 | 145.72761 | 32657 ft | 570 kts | 58° |
| 2026-05-04 05:01 | 37.29192 | 145.85506 | 32656 ft | 572 kts | 58° |
| 2026-05-04 05:01 | 37.33372 | 145.94021 | 32645 ft | 572 kts | 58° |
| 2026-05-04 05:02 | 37.37577 | 146.02499 | 32644 ft | 571 kts | 57° |
| 2026-05-04 05:02 | 37.41781 | 146.10971 | 32647 ft | 570 kts | 57° |
| 2026-05-04 05:03 | 37.45964 | 146.19430 | 32645 ft | 569 kts | 57° |
| 2026-05-04 05:04 | 37.54287 | 146.36352 | 32638 ft | 567 kts | 58° |
| 2026-05-04 05:04 | 37.58412 | 146.44771 | 32647 ft | 567 kts | 58° |
| 2026-05-04 05:06 | 37.74937 | 146.78713 | 32645 ft | 567 kts | 58° |
| 2026-05-04 05:07 | 37.79027 | 146.87169 | 32640 ft | 567 kts | 58° |
| 2026-05-04 05:07 | 37.83139 | 146.95692 | 32647 ft | 567 kts | 58° |
| 2026-05-04 05:09 | 38.01604 | 147.34241 | 32640 ft | 569 kts | 58° |
| 2026-05-04 05:10 | 38.05667 | 147.42784 | 32644 ft | 568 kts | 58° |
| 2026-05-04 05:10 | 38.09745 | 147.51384 | 32637 ft | 568 kts | 58° |
| 2026-05-04 05:11 | 38.13819 | 147.59996 | 32639 ft | 567 kts | 58° |
| 2026-05-04 05:11 | 38.17877 | 147.68598 | 32643 ft | 567 kts | 58° |
| 2026-05-04 05:12 | 38.21918 | 147.77186 | 32645 ft | 566 kts | 58° |
| 2026-05-04 05:12 | 38.25940 | 147.85756 | 32647 ft | 566 kts | 58° |
| 2026-05-04 05:13 | 38.29964 | 147.94355 | 32651 ft | 566 kts | 58° |
| 2026-05-04 05:13 | 38.33997 | 148.02994 | 32642 ft | 567 kts | 58° |
| 2026-05-04 05:14 | 38.38024 | 148.11645 | 32648 ft | 567 kts | 58° |
| 2026-05-04 05:14 | 38.42046 | 148.20308 | 32651 ft | 568 kts | 58° |
| 2026-05-04 05:15 | 38.46071 | 148.29003 | 32658 ft | 568 kts | 58° |
| 2026-05-04 05:15 | 38.50060 | 148.37641 | 32657 ft | 569 kts | 58° |
| 2026-05-04 05:16 | 38.54078 | 148.46366 | 32645 ft | 569 kts | 58° |
| 2026-05-04 05:16 | 38.58088 | 148.55098 | 32656 ft | 569 kts | 58° |
| 2026-05-04 05:17 | 38.62099 | 148.63855 | 32640 ft | 570 kts | 58° |
| 2026-05-04 05:17 | 38.66073 | 148.72557 | 32660 ft | 569 kts | 58° |
| 2026-05-04 05:18 | 38.70061 | 148.81310 | 32655 ft | 569 kts | 58° |
| 2026-05-04 05:18 | 38.74045 | 148.90082 | 32660 ft | 569 kts | 58° |
| 2026-05-04 05:19 | 38.78019 | 148.98856 | 32636 ft | 569 kts | 58° |
| 2026-05-04 05:19 | 38.81976 | 149.07617 | 32658 ft | 567 kts | 58° |
| 2026-05-04 05:20 | 38.85899 | 149.16325 | 32639 ft | 567 kts | 58° |
| 2026-05-04 05:20 | 38.89841 | 149.25098 | 32660 ft | 567 kts | 58° |
| 2026-05-04 05:21 | 38.93778 | 149.33887 | 32669 ft | 567 kts | 58° |
| 2026-05-04 05:21 | 38.97712 | 149.42693 | 32662 ft | 568 kts | 58° |
| 2026-05-04 05:22 | 39.01645 | 149.51521 | 32651 ft | 569 kts | 58° |
| 2026-05-04 05:22 | 39.05550 | 149.60312 | 32657 ft | 570 kts | 58° |
| 2026-05-04 05:23 | 39.09485 | 149.69195 | 32660 ft | 571 kts | 58° |
| 2026-05-04 05:23 | 39.13416 | 149.78093 | 32656 ft | 571 kts | 58° |
| 2026-05-04 05:24 | 39.17588 | 149.86770 | 32659 ft | 568 kts | 52° |
| 2026-05-04 05:24 | 39.22217 | 149.95017 | 32659 ft | 568 kts | 50° |
| 2026-05-04 05:25 | 39.26865 | 150.03209 | 32656 ft | 568 kts | 51° |
| 2026-05-04 05:25 | 39.31493 | 150.11480 | 32653 ft | 568 kts | 51° |
| 2026-05-04 05:26 | 39.36094 | 150.19795 | 32654 ft | 568 kts | 51° |
| 2026-05-04 05:26 | 39.40682 | 150.28122 | 32658 ft | 568 kts | 51° |
| 2026-05-04 05:28 | 39.58946 | 150.61435 | 32666 ft | 567 kts | 51° |
| 2026-05-04 05:29 | 39.63481 | 150.69758 | 32672 ft | 568 kts | 51° |
| 2026-05-04 05:29 | 39.68037 | 150.78142 | 32684 ft | 569 kts | 51° |
| 2026-05-04 05:31 | 39.86255 | 151.11894 | 32697 ft | 571 kts | 52° |
| 2026-05-04 05:32 | 39.90801 | 151.20373 | 32696 ft | 571 kts | 52° |
| 2026-05-04 05:33 | 39.97587 | 151.33074 | 32702 ft | 571 kts | 52° |
| 2026-05-04 05:33 | 40.02120 | 151.41585 | 32714 ft | 571 kts | 52° |
| 2026-05-04 05:34 | 40.06643 | 151.50100 | 32706 ft | 571 kts | 52° |
| 2026-05-04 05:34 | 40.11164 | 151.58635 | 32711 ft | 571 kts | 52° |
| 2026-05-04 05:35 | 40.15682 | 151.67186 | 32718 ft | 571 kts | 52° |
| 2026-05-04 05:35 | 40.20192 | 151.75748 | 32715 ft | 571 kts | 52° |
| 2026-05-04 05:36 | 40.24660 | 151.84251 | 32722 ft | 571 kts | 52° |
| 2026-05-04 05:36 | 40.29154 | 151.92828 | 32725 ft | 571 kts | 52° |
| 2026-05-04 05:37 | 40.33649 | 152.01429 | 32730 ft | 571 kts | 52° |
| 2026-05-04 05:37 | 40.38134 | 152.10038 | 32732 ft | 571 kts | 52° |
| 2026-05-04 05:38 | 40.44097 | 152.21516 | 32745 ft | 572 kts | 52° |
| 2026-05-04 05:38 | 40.48573 | 152.30161 | 32742 ft | 572 kts | 52° |
| 2026-05-04 05:39 | 40.55280 | 152.43161 | 32753 ft | 572 kts | 52° |
| 2026-05-04 05:40 | 40.61944 | 152.56130 | 32756 ft | 572 kts | 52° |
| 2026-05-04 05:40 | 40.66396 | 152.64825 | 32758 ft | 572 kts | 52° |
| 2026-05-04 05:41 | 40.70844 | 152.73539 | 32762 ft | 571 kts | 53° |
| 2026-05-04 05:41 | 40.75256 | 152.82203 | 32767 ft | 571 kts | 53° |
| 2026-05-04 05:42 | 40.79676 | 152.90909 | 32770 ft | 571 kts | 53° |
| 2026-05-04 05:42 | 40.84089 | 152.99624 | 32777 ft | 570 kts | 53° |
| 2026-05-04 05:43 | 40.88493 | 153.08346 | 32779 ft | 570 kts | 53° |
| 2026-05-04 05:45 | 41.05998 | 153.43264 | 32795 ft | 569 kts | 53° |
| 2026-05-04 05:47 | 41.23403 | 153.78377 | 32813 ft | 570 kts | 53° |
| 2026-05-04 05:47 | 41.27742 | 153.87193 | 32817 ft | 570 kts | 53° |
| 2026-05-04 05:48 | 41.32081 | 153.96035 | 32828 ft | 570 kts | 53° |
| 2026-05-04 05:48 | 41.36417 | 154.04897 | 32830 ft | 571 kts | 53° |
| 2026-05-04 05:49 | 41.40718 | 154.13713 | 32829 ft | 571 kts | 53° |
| 2026-05-04 05:49 | 41.45041 | 154.22601 | 32830 ft | 571 kts | 53° |
| 2026-05-04 05:51 | 41.62248 | 154.58233 | 32843 ft | 571 kts | 54° |
| 2026-05-04 05:52 | 41.66542 | 154.67190 | 32854 ft | 570 kts | 54° |
| 2026-05-04 05:52 | 41.70815 | 154.76129 | 32857 ft | 570 kts | 54° |
| 2026-05-04 05:54 | 41.87806 | 155.11939 | 32874 ft | 569 kts | 54° |
| 2026-05-04 05:55 | 41.92041 | 155.20932 | 32879 ft | 569 kts | 54° |
| 2026-05-04 05:55 | 41.96259 | 155.29917 | 32886 ft | 569 kts | 54° |
| 2026-05-04 05:56 | 42.00464 | 155.38898 | 32889 ft | 568 kts | 54° |
| 2026-05-04 05:56 | 42.04655 | 155.47877 | 32894 ft | 568 kts | 54° |
| 2026-05-04 05:57 | 42.08850 | 155.56891 | 32901 ft | 568 kts | 54° |
| 2026-05-04 05:57 | 42.13047 | 155.65937 | 32905 ft | 568 kts | 54° |
| 2026-05-04 05:58 | 42.17236 | 155.74993 | 32908 ft | 568 kts | 54° |
| 2026-05-04 05:58 | 42.21382 | 155.83985 | 32910 ft | 568 kts | 54° |
| 2026-05-04 05:59 | 42.25550 | 155.93051 | 32919 ft | 568 kts | 54° |
| 2026-05-04 05:59 | 42.29709 | 156.02122 | 32919 ft | 568 kts | 54° |
| 2026-05-04 06:00 | 42.33861 | 156.11208 | 32934 ft | 568 kts | 54° |
| 2026-05-04 06:00 | 42.38014 | 156.20324 | 32932 ft | 568 kts | 54° |
| 2026-05-04 06:01 | 42.42156 | 156.29443 | 32938 ft | 568 kts | 54° |
| 2026-05-04 06:03 | 42.58603 | 156.65932 | 32950 ft | 568 kts | 54° |
| 2026-05-04 06:05 | 42.76983 | 157.07251 | 32954 ft | 568 kts | 55° |
| 2026-05-04 06:06 | 42.81053 | 157.16479 | 32967 ft | 568 kts | 55° |
| 2026-05-04 06:06 | 42.85123 | 157.25735 | 32969 ft | 568 kts | 55° |
| 2026-05-04 06:07 | 42.89173 | 157.34977 | 32969 ft | 568 kts | 55° |
| 2026-05-04 06:07 | 42.93201 | 157.44197 | 32973 ft | 569 kts | 55° |
| 2026-05-04 06:08 | 42.97247 | 157.53487 | 32974 ft | 569 kts | 55° |
| 2026-05-04 06:08 | 43.01291 | 157.62802 | 32978 ft | 570 kts | 55° |
| 2026-05-04 06:09 | 43.05333 | 157.72140 | 32976 ft | 570 kts | 55° |
| 2026-05-04 06:11 | 43.21421 | 158.09615 | 32989 ft | 573 kts | 55° |
| 2026-05-04 06:13 | 43.37467 | 158.47479 | 32998 ft | 575 kts | 55° |
| 2026-05-04 06:14 | 43.51451 | 158.80890 | 33004 ft | 575 kts | 55° |
| 2026-05-04 06:15 | 43.55398 | 158.90388 | 33005 ft | 575 kts | 55° |
| 2026-05-04 06:15 | 43.59361 | 158.99958 | 33007 ft | 575 kts | 55° |
| 2026-05-04 06:16 | 43.63324 | 159.09562 | 33010 ft | 574 kts | 55° |
| 2026-05-04 06:16 | 43.67261 | 159.19133 | 33009 ft | 574 kts | 55° |
| 2026-05-04 06:17 | 43.71205 | 159.28753 | 33012 ft | 574 kts | 55° |
| 2026-05-04 06:17 | 43.75139 | 159.38381 | 33011 ft | 575 kts | 55° |
| 2026-05-04 06:18 | 43.79045 | 159.47972 | 33005 ft | 575 kts | 55° |
| 2026-05-04 06:20 | 43.94658 | 159.86644 | 33022 ft | 576 kts | 54° |
| 2026-05-04 06:21 | 44.04181 | 160.11170 | 33027 ft | 579 kts | 58° |
| 2026-05-04 06:22 | 44.07719 | 160.21245 | 33026 ft | 580 kts | 58° |
| 2026-05-04 06:25 | 44.32654 | 160.91811 | 33027 ft | 581 kts | 57° |
| 2026-05-04 06:26 | 44.36195 | 161.01957 | 33035 ft | 581 kts | 57° |
| 2026-05-04 06:26 | 44.39133 | 161.10403 | 33034 ft | 581 kts | 57° |
| 2026-05-04 06:27 | 44.47936 | 161.35874 | 33040 ft | 581 kts | 57° |
| 2026-05-04 06:28 | 44.51414 | 161.46005 | 33040 ft | 580 kts | 57° |
| 2026-05-04 06:28 | 44.54901 | 161.56199 | 33037 ft | 579 kts | 57° |
| 2026-05-04 06:29 | 44.58373 | 161.66388 | 33045 ft | 578 kts | 57° |
| 2026-05-04 06:29 | 44.61835 | 161.76587 | 33038 ft | 577 kts | 57° |
| 2026-05-04 06:30 | 44.65256 | 161.86703 | 33044 ft | 576 kts | 56° |
| 2026-05-04 06:30 | 44.68679 | 161.96864 | 33044 ft | 575 kts | 56° |
| 2026-05-04 06:31 | 44.72088 | 162.07019 | 33046 ft | 574 kts | 56° |
| 2026-05-04 06:31 | 44.75489 | 162.17193 | 33049 ft | 574 kts | 56° |
| 2026-05-04 06:33 | 44.88936 | 162.57799 | 33040 ft | 571 kts | 56° |
| 2026-05-04 06:34 | 44.92279 | 162.67990 | 33046 ft | 571 kts | 56° |
| 2026-05-04 06:34 | 44.95606 | 162.78172 | 33047 ft | 571 kts | 56° |
| 2026-05-04 06:36 | 45.08798 | 163.18947 | 33020 ft | 570 kts | 56° |
| 2026-05-04 06:37 | 45.12077 | 163.29182 | 33024 ft | 570 kts | 56° |
| 2026-05-04 06:37 | 45.15343 | 163.39415 | 33034 ft | 570 kts | 56° |
| 2026-05-04 06:38 | 45.18598 | 163.49656 | 33021 ft | 570 kts | 56° |
| 2026-05-04 06:40 | 45.31498 | 163.90643 | 33024 ft | 569 kts | 56° |
| 2026-05-04 06:40 | 45.34705 | 164.00936 | 33019 ft | 569 kts | 56° |
| 2026-05-04 06:41 | 45.37904 | 164.11243 | 33021 ft | 569 kts | 56° |
| 2026-05-04 06:41 | 45.41087 | 164.21540 | 32998 ft | 568 kts | 56° |
| 2026-05-04 06:42 | 45.44256 | 164.31833 | 33007 ft | 568 kts | 56° |
| 2026-05-04 06:44 | 45.56824 | 164.73069 | 33001 ft | 567 kts | 56° |
| 2026-05-04 06:44 | 45.59947 | 164.83425 | 32989 ft | 567 kts | 56° |
| 2026-05-04 06:45 | 45.63060 | 164.93787 | 32988 ft | 567 kts | 56° |
| 2026-05-04 06:45 | 45.66164 | 165.04161 | 32980 ft | 567 kts | 56° |
| 2026-05-04 06:46 | 45.69258 | 165.14543 | 32980 ft | 567 kts | 56° |
| 2026-05-04 06:46 | 45.72320 | 165.24863 | 32980 ft | 567 kts | 56° |
| 2026-05-04 06:48 | 45.84575 | 165.66594 | 32946 ft | 568 kts | 56° |
| 2026-05-04 06:50 | 45.96699 | 166.08585 | 32938 ft | 570 kts | 55° |
| 2026-05-04 06:51 | 45.99718 | 166.19156 | 32928 ft | 571 kts | 55° |
| 2026-05-04 06:51 | 46.02726 | 166.29734 | 32925 ft | 571 kts | 55° |
| 2026-05-04 06:52 | 46.05722 | 166.40317 | 32921 ft | 571 kts | 55° |
| 2026-05-04 06:52 | 46.08691 | 166.50849 | 32897 ft | 571 kts | 55° |
| 2026-05-04 06:53 | 46.11667 | 166.61451 | 32896 ft | 570 kts | 55° |
| 2026-05-04 06:53 | 46.14631 | 166.72057 | 32894 ft | 570 kts | 55° |
| 2026-05-04 06:54 | 46.17585 | 166.82670 | 32884 ft | 569 kts | 55° |
| 2026-05-04 06:54 | 46.20527 | 166.93291 | 32884 ft | 569 kts | 55° |
| 2026-05-04 06:55 | 46.23454 | 167.03903 | 32867 ft | 568 kts | 54° |
| 2026-05-04 06:55 | 46.26370 | 167.14520 | 32862 ft | 568 kts | 54° |
| 2026-05-04 06:57 | 46.37897 | 167.56964 | 32826 ft | 566 kts | 54° |
| 2026-05-04 06:58 | 46.40757 | 167.67614 | 32828 ft | 566 kts | 54° |
| 2026-05-04 06:58 | 46.43583 | 167.78187 | 32824 ft | 566 kts | 54° |
| 2026-05-04 06:59 | 46.46420 | 167.88843 | 32816 ft | 566 kts | 54° |
| 2026-05-04 06:59 | 46.49238 | 167.99479 | 32808 ft | 565 kts | 54° |
| 2026-05-04 07:01 | 46.60427 | 168.42195 | 32784 ft | 565 kts | 54° |
| 2026-05-04 07:02 | 46.63179 | 168.52824 | 32771 ft | 565 kts | 54° |
| 2026-05-04 07:02 | 46.65938 | 168.63527 | 32768 ft | 564 kts | 54° |
| 2026-05-04 07:03 | 46.68689 | 168.74253 | 32763 ft | 564 kts | 54° |
| 2026-05-04 07:03 | 46.71422 | 168.84957 | 32749 ft | 563 kts | 54° |
| 2026-05-04 07:04 | 46.74144 | 168.95667 | 32752 ft | 563 kts | 54° |
| 2026-05-04 07:04 | 46.76839 | 169.06315 | 32727 ft | 563 kts | 55° |
| 2026-05-04 07:05 | 46.79534 | 169.17022 | 32733 ft | 562 kts | 55° |
| 2026-05-04 07:05 | 46.82219 | 169.27734 | 32726 ft | 562 kts | 56° |
| 2026-05-04 07:06 | 46.86225 | 169.43815 | 32722 ft | 560 kts | 56° |
| 2026-05-04 07:07 | 46.88876 | 169.54519 | 32695 ft | 559 kts | 56° |
| 2026-05-04 07:09 | 46.99310 | 169.97152 | 32684 ft | 555 kts | 59° |
| 2026-05-04 07:09 | 47.01353 | 170.08271 | 32675 ft | 568 kts | 67° |
| 2026-05-04 07:10 | 47.02927 | 170.19579 | 32669 ft | 569 kts | 69° |
| 2026-05-04 07:12 | 47.09247 | 170.64702 | 32649 ft | 562 kts | 69° |
| 2026-05-04 07:12 | 47.10816 | 170.75937 | 32647 ft | 561 kts | 69° |
| 2026-05-04 07:13 | 47.12367 | 170.87147 | 32646 ft | 560 kts | 70° |
| 2026-05-04 07:13 | 47.13907 | 170.98362 | 32638 ft | 559 kts | 70° |
| 2026-05-04 07:14 | 47.17443 | 171.24445 | 32632 ft | 557 kts | 71° |
| 2026-05-04 07:15 | 47.18938 | 171.35618 | 32632 ft | 556 kts | 71° |
| 2026-05-04 07:15 | 47.20421 | 171.46793 | 32614 ft | 555 kts | 71° |
| 2026-05-04 07:16 | 47.21888 | 171.57931 | 32616 ft | 554 kts | 72° |
| 2026-05-04 07:16 | 47.23333 | 171.68995 | 32620 ft | 553 kts | 72° |
| 2026-05-04 07:17 | 47.24774 | 171.80107 | 32613 ft | 551 kts | 72° |
| 2026-05-04 07:17 | 47.26198 | 171.91178 | 32607 ft | 550 kts | 72° |
| 2026-05-04 07:18 | 47.27611 | 172.02255 | 32597 ft | 549 kts | 72° |
| 2026-05-04 07:18 | 47.29011 | 172.13317 | 32598 ft | 549 kts | 73° |
| 2026-05-04 07:19 | 47.30400 | 172.24382 | 32597 ft | 548 kts | 73° |
| 2026-05-04 07:19 | 47.31775 | 172.35424 | 32596 ft | 548 kts | 73° |
| 2026-05-04 07:20 | 47.33131 | 172.46403 | 32596 ft | 547 kts | 73° |
| 2026-05-04 07:20 | 47.34480 | 172.57424 | 32594 ft | 546 kts | 73° |
| 2026-05-04 07:22 | 47.39763 | 173.01484 | 32583 ft | 543 kts | 75° |
| 2026-05-04 07:23 | 47.41051 | 173.12461 | 32582 ft | 543 kts | 75° |
| 2026-05-04 07:23 | 47.42328 | 173.23441 | 32566 ft | 542 kts | 75° |
| 2026-05-04 07:24 | 47.43587 | 173.34352 | 32574 ft | 541 kts | 76° |
| 2026-05-04 07:24 | 47.44841 | 173.45328 | 32576 ft | 541 kts | 76° |
| 2026-05-04 07:26 | 47.49731 | 173.89054 | 32586 ft | 538 kts | 77° |
| 2026-05-04 07:27 | 47.50926 | 173.99987 | 32583 ft | 538 kts | 77° |
| 2026-05-04 07:27 | 47.52111 | 174.10921 | 32585 ft | 537 kts | 77° |
| 2026-05-04 07:28 | 47.53282 | 174.21841 | 32584 ft | 537 kts | 77° |
| 2026-05-04 07:28 | 47.54434 | 174.32668 | 32583 ft | 536 kts | 77° |
| 2026-05-04 07:29 | 47.55583 | 174.43577 | 32589 ft | 536 kts | 78° |
| 2026-05-04 07:29 | 47.56721 | 174.54488 | 32598 ft | 535 kts | 78° |
| 2026-05-04 07:30 | 47.57847 | 174.65380 | 32596 ft | 535 kts | 78° |
| 2026-05-04 07:30 | 47.58962 | 174.76276 | 32597 ft | 534 kts | 78° |
| 2026-05-04 07:31 | 47.60066 | 174.87170 | 32600 ft | 534 kts | 78° |
| 2026-05-04 07:33 | 47.64359 | 175.30574 | 32617 ft | 531 kts | 79° |
| 2026-05-04 07:33 | 47.65406 | 175.41423 | 32619 ft | 531 kts | 79° |
| 2026-05-04 07:34 | 47.66443 | 175.52293 | 32619 ft | 531 kts | 80° |
| 2026-05-04 07:34 | 47.67468 | 175.63136 | 32623 ft | 530 kts | 80° |
| 2026-05-04 07:35 | 47.68474 | 175.73894 | 32633 ft | 530 kts | 80° |
| 2026-05-04 07:35 | 47.69478 | 175.84745 | 32631 ft | 530 kts | 80° |
| 2026-05-04 07:36 | 47.70471 | 175.95590 | 32635 ft | 529 kts | 81° |